sensor_id;sensor_type;location;lat;lon;timestamp;pressure;altitude;pressure_sealevel;temperature;humidity
9893;BME280;4985;49.092;8.542;2023-12-07T00:01:06;99678.31;;;14.06;49.71
9893;BME280;4985;49.092;8.542;2023-12-07T00:03:31;99678.31;;;14.06;49.69
9893;BME280;4985;49.092;8.542;2023-12-07T00:05:57;99680.16;;;14.05;49.68
9893;BME280;4985;49.092;8.542;2023-12-07T00:08:22;99673.03;;;14.06;50.02
9893;BME280;4985;49.092;8.542;2023-12-07T00:10:47;99673.03;;;14.06;49.71
9893;BME280;4985;49.092;8.542;2023-12-07T00:13:13;99676.69;;;14.05;49.75
9893;BME280;4985;49.092;8.542;2023-12-07T00:15:38;99675.69;;;14.06;49.77
9893;BME280;4985;49.092;8.542;2023-12-07T00:18:04;99680.16;;;14.05;49.72
9893;BME280;4985;49.092;8.542;2023-12-07T00:20:29;99691.56;;;14.06;49.70
9893;BME280;4985;49.092;8.542;2023-12-07T00:22:55;99692.38;;;14.06;50.04
9893;BME280;4985;49.092;8.542;2023-12-07T00:25:21;99686.25;;;14.06;49.93
9893;BME280;4985;49.092;8.542;2023-12-07T00:27:47;99689.72;;;14.06;49.76
9893;BME280;4985;49.092;8.542;2023-12-07T00:30:13;99687.09;;;14.06;49.98
9893;BME280;4985;49.092;8.542;2023-12-07T00:32:38;99695.03;;;14.06;49.80
9893;BME280;4985;49.092;8.542;2023-12-07T00:35:04;99691.56;;;14.06;50.07
9893;BME280;4985;49.092;8.542;2023-12-07T00:37:29;99690.56;;;14.07;49.54
9893;BME280;4985;49.092;8.542;2023-12-07T00:39:56;99694.03;;;14.07;49.99
9893;BME280;4985;49.092;8.542;2023-12-07T00:42:21;99693.19;;;14.07;49.84
9893;BME280;4985;49.092;8.542;2023-12-07T00:44:47;99688.91;;;14.06;49.79
9893;BME280;4985;49.092;8.542;2023-12-07T00:47:12;99693.19;;;14.07;49.80
9893;BME280;4985;49.092;8.542;2023-12-07T00:49:38;99696.84;;;14.06;49.95
9893;BME280;4985;49.092;8.542;2023-12-07T00:52:05;99700.31;;;14.06;49.72
9893;BME280;4985;49.092;8.542;2023-12-07T00:54:31;99709.09;;;14.07;49.64
9893;BME280;4985;49.092;8.542;2023-12-07T00:56:56;99698.50;;;14.07;49.97
9893;BME280;4985;49.092;8.542;2023-12-07T00:59:23;99708.25;;;14.06;49.69
9893;BME280;4985;49.092;8.542;2023-12-07T01:01:48;99706.44;;;14.07;49.78
9893;BME280;4985;49.092;8.542;2023-12-07T01:04:14;99710.09;;;14.06;49.77
9893;BME280;4985;49.092;8.542;2023-12-07T01:06:39;99710.91;;;14.06;49.65
9893;BME280;4985;49.092;8.542;2023-12-07T01:09:04;99714.38;;;14.07;49.49
9893;BME280;4985;49.092;8.542;2023-12-07T01:11:30;99710.09;;;14.06;49.83
9893;BME280;4985;49.092;8.542;2023-12-07T01:13:55;99718.03;;;14.06;50.03
9893;BME280;4985;49.092;8.542;2023-12-07T01:16:21;99719.69;;;14.07;49.81
9893;BME280;4985;49.092;8.542;2023-12-07T01:18:46;99724.16;;;14.06;49.97
9893;BME280;4985;49.092;8.542;2023-12-07T01:21:11;99723.31;;;14.06;49.74
9893;BME280;4985;49.092;8.542;2023-12-07T01:23:37;99724.16;;;14.06;49.77
9893;BME280;4985;49.092;8.542;2023-12-07T01:26:03;99736.38;;;14.07;49.95
9893;BME280;4985;49.092;8.542;2023-12-07T01:28:28;99735.56;;;14.07;49.77
9893;BME280;4985;49.092;8.542;2023-12-07T01:30:54;99729.44;;;14.06;49.82
9893;BME280;4985;49.092;8.542;2023-12-07T01:33:20;99739.84;;;14.08;49.69
9893;BME280;4985;49.092;8.542;2023-12-07T01:35:45;99740.03;;;14.06;49.80
9893;BME280;4985;49.092;8.542;2023-12-07T01:38:10;99740.84;;;14.07;49.89
9893;BME280;4985;49.092;8.542;2023-12-07T01:40:36;99736.38;;;14.07;49.85
9893;BME280;4985;49.092;8.542;2023-12-07T01:43:01;99735.56;;;14.07;49.80
9893;BME280;4985;49.092;8.542;2023-12-07T01:45:26;99739.84;;;14.08;49.99
9893;BME280;4985;49.092;8.542;2023-12-07T01:47:53;99741.84;;;14.06;49.69
9893;BME280;4985;49.092;8.542;2023-12-07T01:50:19;99750.63;;;14.06;49.81
9893;BME280;4985;49.092;8.542;2023-12-07T01:52:50;99740.03;;;14.06;49.94
9893;BME280;4985;49.092;8.542;2023-12-07T01:55:17;99742.69;;;14.06;49.71
9893;BME280;4985;49.092;8.542;2023-12-07T01:57:44;99743.50;;;14.07;49.81
9893;BME280;4985;49.092;8.542;2023-12-07T02:00:11;99746.16;;;14.07;49.85
9893;BME280;4985;49.092;8.542;2023-12-07T02:02:38;99739.22;;;14.06;49.76
9893;BME280;4985;49.092;8.542;2023-12-07T02:05:04;99744.50;;;14.06;49.98
9893;BME280;4985;49.092;8.542;2023-12-07T02:07:30;99743.50;;;14.07;49.74
9893;BME280;4985;49.092;8.542;2023-12-07T02:09:57;99739.22;;;14.06;49.55
9893;BME280;4985;49.092;8.542;2023-12-07T02:12:23;99735.56;;;14.07;49.80
9893;BME280;4985;49.092;8.542;2023-12-07T02:14:49;99739.22;;;14.06;49.50
9893;BME280;4985;49.092;8.542;2023-12-07T02:17:21;99734.72;;;14.06;49.66
9893;BME280;4985;49.092;8.542;2023-12-07T02:20:13;99740.84;;;14.07;49.53
9893;BME280;4985;49.092;8.542;2023-12-07T02:22:49;99732.28;;;14.05;49.90
9893;BME280;4985;49.092;8.542;2023-12-07T02:25:18;99736.72;;;14.04;49.83
9893;BME280;4985;49.092;8.542;2023-12-07T02:27:48;99739.34;;;14.04;49.75
9893;BME280;4985;49.092;8.542;2023-12-07T02:30:14;99731.41;;;14.04;49.92
9893;BME280;4985;49.092;8.542;2023-12-07T02:32:41;99735.88;;;14.04;49.92
9893;BME280;4985;49.092;8.542;2023-12-07T02:35:08;99732.28;;;14.05;49.80
9893;BME280;4985;49.092;8.542;2023-12-07T02:37:50;99731.41;;;14.04;49.94
9893;BME280;4985;49.092;8.542;2023-12-07T02:40:20;99741.19;;;14.04;49.74
9893;BME280;4985;49.092;8.542;2023-12-07T02:42:46;99741.19;;;14.04;49.99
9893;BME280;4985;49.092;8.542;2023-12-07T02:45:12;99735.88;;;14.04;49.88
9893;BME280;4985;49.092;8.542;2023-12-07T02:47:38;99735.88;;;14.04;49.68
9893;BME280;4985;49.092;8.542;2023-12-07T02:50:05;99735.88;;;14.04;49.65
9893;BME280;4985;49.092;8.542;2023-12-07T02:52:31;99738.38;;;14.05;49.85
9893;BME280;4985;49.092;8.542;2023-12-07T02:54:56;99737.72;;;14.03;50.02
9893;BME280;4985;49.092;8.542;2023-12-07T02:57:22;99737.56;;;14.05;49.99
9893;BME280;4985;49.092;8.542;2023-12-07T02:59:47;99729.75;;;14.03;50.06
9893;BME280;4985;49.092;8.542;2023-12-07T03:02:12;99735.88;;;14.04;49.69
9893;BME280;4985;49.092;8.542;2023-12-07T03:04:38;99738.38;;;14.05;49.88
9893;BME280;4985;49.092;8.542;2023-12-07T03:07:03;99737.72;;;14.03;49.74
9893;BME280;4985;49.092;8.542;2023-12-07T03:09:28;99741.19;;;14.04;49.79
9893;BME280;4985;49.092;8.542;2023-12-07T03:11:54;99743.81;;;14.04;49.68
9893;BME280;4985;49.092;8.542;2023-12-07T03:14:19;99741.19;;;14.04;49.62
9893;BME280;4985;49.092;8.542;2023-12-07T03:16:45;99734.25;;;14.03;49.73
9893;BME280;4985;49.092;8.542;2023-12-07T03:19:10;99737.72;;;14.03;49.99
9893;BME280;4985;49.092;8.542;2023-12-07T03:21:39;99744.00;;;14.02;49.63
9893;BME280;4985;49.092;8.542;2023-12-07T03:24:04;99744.81;;;14.03;50.05
9893;BME280;4985;49.092;8.542;2023-12-07T03:26:30;99749.13;;;14.04;49.82
9893;BME280;4985;49.092;8.542;2023-12-07T03:28:56;99748.47;;;14.02;49.80
9893;BME280;4985;49.092;8.542;2023-12-07T03:31:21;99748.47;;;14.02;49.62
9893;BME280;4985;49.092;8.542;2023-12-07T03:33:46;99745.81;;;14.02;49.53
9893;BME280;4985;49.092;8.542;2023-12-07T03:36:12;99752.78;;;14.03;49.99
9893;BME280;4985;49.092;8.542;2023-12-07T03:38:37;99753.78;;;14.02;50.03
9893;BME280;4985;49.092;8.542;2023-12-07T03:41:03;99752.94;;;14.01;50.00
9893;BME280;4985;49.092;8.542;2023-12-07T03:43:29;99754.59;;;14.02;50.01
9893;BME280;4985;49.092;8.542;2023-12-07T03:45:54;99756.41;;;14.02;49.90
9893;BME280;4985;49.092;8.542;2023-12-07T03:48:19;99753.78;;;14.02;49.57
9893;BME280;4985;49.092;8.542;2023-12-07T03:50:45;99771.47;;;14.01;49.84
9893;BME280;4985;49.092;8.542;2023-12-07T03:53:10;99763.53;;;14.01;49.77
9893;BME280;4985;49.092;8.542;2023-12-07T03:55:35;99762.72;;;14.01;49.93
9893;BME280;4985;49.092;8.542;2023-12-07T03:58:02;99756.59;;;14.00;49.92
9893;BME280;4985;49.092;8.542;2023-12-07T04:00:27;99761.88;;;14.00;49.84
9893;BME280;4985;49.092;8.542;2023-12-07T04:02:52;99760.06;;;14.01;49.77
9893;BME280;4985;49.092;8.542;2023-12-07T04:05:18;99761.88;;;14.00;49.94
9893;BME280;4985;49.092;8.542;2023-12-07T04:07:43;99761.88;;;14.00;49.78
9893;BME280;4985;49.092;8.542;2023-12-07T04:10:09;99761.06;;;13.99;49.81
9893;BME280;4985;49.092;8.542;2023-12-07T04:12:34;99761.06;;;13.99;49.59
9893;BME280;4985;49.092;8.542;2023-12-07T04:14:59;99762.72;;;14.01;50.02
9893;BME280;4985;49.092;8.542;2023-12-07T04:17:25;99761.06;;;13.99;49.85
9893;BME280;4985;49.092;8.542;2023-12-07T04:19:50;99761.06;;;13.99;49.71
9893;BME280;4985;49.092;8.542;2023-12-07T04:22:16;99768.19;;;13.99;49.96
9893;BME280;4985;49.092;8.542;2023-12-07T04:24:41;99758.59;;;13.98;49.82
9893;BME280;4985;49.092;8.542;2023-12-07T04:27:06;99760.25;;;13.99;50.01
9893;BME280;4985;49.092;8.542;2023-12-07T04:29:32;99764.72;;;13.98;49.79
9893;BME280;4985;49.092;8.542;2023-12-07T04:31:57;99759.41;;;13.98;49.57
9893;BME280;4985;49.092;8.542;2023-12-07T04:34:22;99753.31;;;13.98;49.70
9893;BME280;4985;49.092;8.542;2023-12-07T04:36:49;99764.72;;;13.98;49.76
9893;BME280;4985;49.092;8.542;2023-12-07T04:39:14;99770.00;;;13.98;49.75
9893;BME280;4985;49.092;8.542;2023-12-07T04:41:40;99773.66;;;13.97;50.01
9893;BME280;4985;49.092;8.542;2023-12-07T04:44:05;99771.00;;;13.97;49.71
9893;BME280;4985;49.092;8.542;2023-12-07T04:46:31;99765.72;;;13.97;49.81
9893;BME280;4985;49.092;8.542;2023-12-07T04:48:56;99766.72;;;13.96;49.93
9893;BME280;4985;49.092;8.542;2023-12-07T04:51:22;99772.00;;;13.96;49.94
9893;BME280;4985;49.092;8.542;2023-12-07T04:53:47;99781.59;;;13.97;50.06
9893;BME280;4985;49.092;8.542;2023-12-07T04:56:13;99783.41;;;13.97;49.93
9893;BME280;4985;49.092;8.542;2023-12-07T04:58:38;99782.59;;;13.96;49.85
9893;BME280;4985;49.092;8.542;2023-12-07T05:01:04;99788.72;;;13.97;49.66
9893;BME280;4985;49.092;8.542;2023-12-07T05:03:29;99783.59;;;13.95;49.93
9893;BME280;4985;49.092;8.542;2023-12-07T05:05:55;99784.41;;;13.96;50.08
9893;BME280;4985;49.092;8.542;2023-12-07T05:08:20;99784.41;;;13.96;49.71
9893;BME280;4985;49.092;8.542;2023-12-07T05:10:45;99787.88;;;13.96;49.92
9893;BME280;4985;49.092;8.542;2023-12-07T05:13:11;99780.94;;;13.95;49.81
9893;BME280;4985;49.092;8.542;2023-12-07T05:15:36;99785.41;;;13.95;50.06
9893;BME280;4985;49.092;8.542;2023-12-07T05:18:01;99776.47;;;13.96;49.80
9893;BME280;4985;49.092;8.542;2023-12-07T05:20:27;99780.13;;;13.95;50.12
9893;BME280;4985;49.092;8.542;2023-12-07T05:22:54;99774.84;;;13.95;49.67
9893;BME280;4985;49.092;8.542;2023-12-07T05:25:19;99774.00;;;13.94;49.88
9893;BME280;4985;49.092;8.542;2023-12-07T05:27:45;99772.38;;;13.93;49.67
9893;BME280;4985;49.092;8.542;2023-12-07T05:30:10;99774.00;;;13.94;49.69
9893;BME280;4985;49.092;8.542;2023-12-07T05:32:36;99776.66;;;13.94;49.68
9893;BME280;4985;49.092;8.542;2023-12-07T05:35:01;99772.38;;;13.93;49.74
9893;BME280;4985;49.092;8.542;2023-12-07T05:37:27;99773.19;;;13.94;49.77
9893;BME280;4985;49.092;8.542;2023-12-07T05:39:53;99778.47;;;13.94;49.82
9893;BME280;4985;49.092;8.542;2023-12-07T05:42:18;99767.06;;;13.93;50.10
9893;BME280;4985;49.092;8.542;2023-12-07T05:44:44;99768.03;;;13.92;49.81
9893;BME280;4985;49.092;8.542;2023-12-07T05:47:09;99768.84;;;13.93;49.82
9893;BME280;4985;49.092;8.542;2023-12-07T05:49:35;99772.38;;;13.93;49.86
9893;BME280;4985;49.092;8.542;2023-12-07T05:52:00;99775.97;;;13.92;49.67
9893;BME280;4985;49.092;8.542;2023-12-07T05:54:25;99776.97;;;13.91;50.00
9893;BME280;4985;49.092;8.542;2023-12-07T05:56:51;99776.97;;;13.91;49.69
9893;BME280;4985;49.092;8.542;2023-12-07T05:59:16;99779.63;;;13.91;49.84
9893;BME280;4985;49.092;8.542;2023-12-07T06:01:42;99769.03;;;13.91;49.69
9893;BME280;4985;49.092;8.542;2023-12-07T06:04:08;99774.31;;;13.91;50.04
9893;BME280;4985;49.092;8.542;2023-12-07T06:06:38;99774.31;;;13.91;49.70
9893;BME280;4985;49.092;8.542;2023-12-07T06:09:03;99777.97;;;13.90;50.03
9893;BME280;4985;49.092;8.542;2023-12-07T06:11:31;99787.56;;;13.91;49.72
9893;BME280;4985;49.092;8.542;2023-12-07T06:13:56;99788.56;;;13.90;49.86
9893;BME280;4985;49.092;8.542;2023-12-07T06:16:24;99789.38;;;13.91;50.01
9893;BME280;4985;49.092;8.542;2023-12-07T06:18:49;99788.56;;;13.90;49.97
9893;BME280;4985;49.092;8.542;2023-12-07T06:21:14;99788.56;;;13.90;49.98
9893;BME280;4985;49.092;8.542;2023-12-07T06:23:40;99778.97;;;13.89;49.99
9893;BME280;4985;49.092;8.542;2023-12-07T06:26:07;99778.97;;;13.89;49.82
9893;BME280;4985;49.092;8.542;2023-12-07T06:28:32;99781.63;;;13.89;49.91
9893;BME280;4985;49.092;8.542;2023-12-07T06:31:04;99786.91;;;13.89;49.91
9893;BME280;4985;49.092;8.542;2023-12-07T06:33:30;99785.28;;;13.88;49.77
9893;BME280;4985;49.092;8.542;2023-12-07T06:35:55;99775.69;;;13.87;50.04
9893;BME280;4985;49.092;8.542;2023-12-07T06:38:20;99783.63;;;13.87;49.78
9893;BME280;4985;49.092;8.542;2023-12-07T06:40:46;99793.22;;;13.88;49.93
9893;BME280;4985;49.092;8.542;2023-12-07T06:43:11;99792.38;;;13.88;49.99
9893;BME280;4985;49.092;8.542;2023-12-07T06:45:36;99788.91;;;13.87;49.94
9893;BME280;4985;49.092;8.542;2023-12-07T06:48:02;99796.84;;;13.87;49.65
9893;BME280;4985;49.092;8.542;2023-12-07T06:50:27;99792.56;;;13.86;49.97
9893;BME280;4985;49.092;8.542;2023-12-07T06:52:52;99797.03;;;13.86;50.17
9893;BME280;4985;49.092;8.542;2023-12-07T06:55:18;99800.50;;;13.86;49.59
9893;BME280;4985;49.092;8.542;2023-12-07T06:57:44;99791.75;;;13.86;49.83
9893;BME280;4985;49.092;8.542;2023-12-07T07:00:10;99793.56;;;13.85;49.90
9893;BME280;4985;49.092;8.542;2023-12-07T07:02:38;99788.28;;;13.85;49.88
9893;BME280;4985;49.092;8.542;2023-12-07T07:05:04;99793.56;;;13.85;49.84
9893;BME280;4985;49.092;8.542;2023-12-07T07:07:30;99799.69;;;13.86;49.61
9893;BME280;4985;49.092;8.542;2023-12-07T07:09:56;99798.84;;;13.85;49.82
9893;BME280;4985;49.092;8.542;2023-12-07T07:12:22;99801.50;;;13.85;50.02
9893;BME280;4985;49.092;8.542;2023-12-07T07:14:48;99798.84;;;13.85;49.74
9893;BME280;4985;49.092;8.542;2023-12-07T07:17:14;99801.50;;;13.85;50.04
9893;BME280;4985;49.092;8.542;2023-12-07T07:19:39;99795.38;;;13.85;49.90
9893;BME280;4985;49.092;8.542;2023-12-07T07:22:04;99794.38;;;13.86;49.88
9893;BME280;4985;49.092;8.542;2023-12-07T07:24:30;99795.38;;;13.85;49.79
9893;BME280;4985;49.092;8.542;2023-12-07T07:26:55;99798.22;;;13.83;49.82
9893;BME280;4985;49.092;8.542;2023-12-07T07:29:21;99792.91;;;13.83;49.72
9893;BME280;4985;49.092;8.542;2023-12-07T07:31:46;99795.56;;;13.83;50.02
9893;BME280;4985;49.092;8.542;2023-12-07T07:34:11;99800.84;;;13.83;50.08
9893;BME280;4985;49.092;8.542;2023-12-07T07:36:37;99803.50;;;13.83;50.21
9893;BME280;4985;49.092;8.542;2023-12-07T07:39:02;99809.63;;;13.84;50.19
9893;BME280;4985;49.092;8.542;2023-12-07T07:41:29;99814.09;;;13.83;50.08
9893;BME280;4985;49.092;8.542;2023-12-07T07:43:55;99819.38;;;13.83;50.07
9893;BME280;4985;49.092;8.542;2023-12-07T07:46:20;99818.56;;;13.83;49.81
9893;BME280;4985;49.092;8.542;2023-12-07T07:48:46;99818.69;;;13.81;50.07
9893;BME280;4985;49.092;8.542;2023-12-07T07:51:11;99823.16;;;13.81;49.84
9893;BME280;4985;49.092;8.542;2023-12-07T07:53:36;99827.50;;;13.82;49.76
9893;BME280;4985;49.092;8.542;2023-12-07T07:56:02;99817.88;;;13.81;49.67
9893;BME280;4985;49.092;8.542;2023-12-07T07:58:27;99820.50;;;13.81;49.98
9893;BME280;4985;49.092;8.542;2023-12-07T08:00:52;99832.94;;;13.80;49.71
9893;BME280;4985;49.092;8.542;2023-12-07T08:03:18;99832.94;;;13.80;49.83
9893;BME280;4985;49.092;8.542;2023-12-07T08:05:43;99829.44;;;13.80;49.70
9893;BME280;4985;49.092;8.542;2023-12-07T08:08:08;99833.94;;;13.79;50.02
9893;BME280;4985;49.092;8.542;2023-12-07T08:10:34;99828.63;;;13.79;49.81
9893;BME280;4985;49.092;8.542;2023-12-07T08:12:59;99823.34;;;13.79;49.89
9893;BME280;4985;49.092;8.542;2023-12-07T08:15:24;99826.81;;;13.80;49.85
9893;BME280;4985;49.092;8.542;2023-12-07T08:17:50;99826.00;;;13.79;49.87
9893;BME280;4985;49.092;8.542;2023-12-07T08:20:16;99814.56;;;13.79;50.07
9893;BME280;4985;49.092;8.542;2023-12-07T08:22:41;99808.47;;;13.78;49.97
9893;BME280;4985;49.092;8.542;2023-12-07T08:25:07;99805.81;;;13.78;50.12
9893;BME280;4985;49.092;8.542;2023-12-07T08:27:34;99810.28;;;13.78;49.83
9893;BME280;4985;49.092;8.542;2023-12-07T08:30:00;99808.47;;;13.78;50.14
9893;BME280;4985;49.092;8.542;2023-12-07T08:32:26;99800.53;;;13.78;49.73
9893;BME280;4985;49.092;8.542;2023-12-07T08:34:52;99797.88;;;13.78;50.02
9893;BME280;4985;49.092;8.542;2023-12-07T08:37:18;99789.94;;;13.78;49.93
9893;BME280;4985;49.092;8.542;2023-12-07T08:39:43;99794.41;;;13.78;49.88
9893;BME280;4985;49.092;8.542;2023-12-07T08:42:09;99789.13;;;13.78;49.85
9893;BME280;4985;49.092;8.542;2023-12-07T08:44:34;99786.47;;;13.78;49.90
9893;BME280;4985;49.092;8.542;2023-12-07T08:46:59;99783.81;;;13.78;49.94
9893;BME280;4985;49.092;8.542;2023-12-07T08:49:25;99777.72;;;13.77;49.92
9893;BME280;4985;49.092;8.542;2023-12-07T08:51:51;99777.72;;;13.77;49.83
9893;BME280;4985;49.092;8.542;2023-12-07T08:54:18;99783.00;;;13.77;50.04
9893;BME280;4985;49.092;8.542;2023-12-07T08:56:44;99780.34;;;13.77;49.78
9893;BME280;4985;49.092;8.542;2023-12-07T08:59:10;99778.53;;;13.78;49.97
9893;BME280;4985;49.092;8.542;2023-12-07T09:01:35;99770.59;;;13.78;49.78
9893;BME280;4985;49.092;8.542;2023-12-07T09:04:00;99770.59;;;13.78;49.99
9893;BME280;4985;49.092;8.542;2023-12-07T09:06:26;99770.59;;;13.78;49.74
9893;BME280;4985;49.092;8.542;2023-12-07T09:08:51;99768.13;;;13.76;50.08
9893;BME280;4985;49.092;8.542;2023-12-07T09:11:17;99775.06;;;13.77;49.80
9893;BME280;4985;49.092;8.542;2023-12-07T09:13:42;99774.25;;;13.77;49.65
9893;BME280;4985;49.092;8.542;2023-12-07T09:16:07;99776.06;;;13.76;49.91
9893;BME280;4985;49.092;8.542;2023-12-07T09:18:33;99776.06;;;13.76;49.92
9893;BME280;4985;49.092;8.542;2023-12-07T09:21:00;99775.22;;;13.76;49.85
9893;BME280;4985;49.092;8.542;2023-12-07T09:23:25;99776.06;;;13.76;50.10
9893;BME280;4985;49.092;8.542;2023-12-07T09:25:51;99776.06;;;13.76;49.94
9893;BME280;4985;49.092;8.542;2023-12-07T09:28:16;99776.06;;;13.76;49.83
9893;BME280;4985;49.092;8.542;2023-12-07T09:30:42;99773.41;;;13.76;49.71
9893;BME280;4985;49.092;8.542;2023-12-07T09:33:07;99772.59;;;13.76;49.72
9893;BME280;4985;49.092;8.542;2023-12-07T09:35:32;99776.22;;;13.75;49.70
9893;BME280;4985;49.092;8.542;2023-12-07T09:37:59;99774.41;;;13.75;49.99
9893;BME280;4985;49.092;8.542;2023-12-07T09:40:24;99768.28;;;13.75;49.99
9893;BME280;4985;49.092;8.542;2023-12-07T09:42:51;99770.78;;;13.76;49.94
9893;BME280;4985;49.092;8.542;2023-12-07T09:45:18;99767.47;;;13.74;49.97
9893;BME280;4985;49.092;8.542;2023-12-07T09:47:51;99766.66;;;13.74;49.82
9893;BME280;4985;49.092;8.542;2023-12-07T09:50:18;99762.19;;;13.74;49.93
9893;BME280;4985;49.092;8.542;2023-12-07T09:52:47;99748.94;;;13.74;49.81
9893;BME280;4985;49.092;8.542;2023-12-07T09:55:16;99752.41;;;13.75;49.91
9893;BME280;4985;49.092;8.542;2023-12-07T09:57:41;99757.72;;;13.75;49.73
9893;BME280;4985;49.092;8.542;2023-12-07T10:00:07;99746.31;;;13.74;49.84
9893;BME280;4985;49.092;8.542;2023-12-07T10:02:38;99746.31;;;13.74;49.92
9893;BME280;4985;49.092;8.542;2023-12-07T10:05:11;99738.38;;;13.74;49.80
9893;BME280;4985;49.092;8.542;2023-12-07T10:07:40;99739.38;;;13.73;49.70
9893;BME280;4985;49.092;8.542;2023-12-07T10:10:06;99739.38;;;13.73;49.82
9893;BME280;4985;49.092;8.542;2023-12-07T10:12:32;99731.44;;;13.73;49.73
9893;BME280;4985;49.092;8.542;2023-12-07T10:15:00;99728.78;;;13.73;49.92
9893;BME280;4985;49.092;8.542;2023-12-07T10:17:51;99719.84;;;13.74;49.90
9893;BME280;4985;49.092;8.542;2023-12-07T10:20:21;99718.19;;;13.73;50.04
9893;BME280;4985;49.092;8.542;2023-12-07T10:23:10;99716.38;;;13.74;49.73
9893;BME280;4985;49.092;8.542;2023-12-07T10:25:42;99711.25;;;13.72;50.11
9893;BME280;4985;49.092;8.542;2023-12-07T10:28:08;99710.44;;;13.72;50.03
9893;BME280;4985;49.092;8.542;2023-12-07T10:30:36;99708.78;;;13.71;50.00
9893;BME280;4985;49.092;8.542;2023-12-07T10:33:04;99711.25;;;13.72;49.93
9893;BME280;4985;49.092;8.542;2023-12-07T10:35:32;99714.72;;;13.73;50.10
9893;BME280;4985;49.092;8.542;2023-12-07T10:37:57;99716.56;;;13.72;50.00
9893;BME280;4985;49.092;8.542;2023-12-07T10:40:23;99718.19;;;13.73;49.75
9893;BME280;4985;49.092;8.542;2023-12-07T10:42:48;99711.25;;;13.72;50.04
9893;BME280;4985;49.092;8.542;2023-12-07T10:45:18;99710.25;;;13.73;49.93
9893;BME280;4985;49.092;8.542;2023-12-07T10:47:46;99700.69;;;13.72;50.00
9893;BME280;4985;49.092;8.542;2023-12-07T10:50:13;99701.50;;;13.73;49.82
9893;BME280;4985;49.092;8.542;2023-12-07T10:52:45;99690.09;;;13.72;50.04
9893;BME280;4985;49.092;8.542;2023-12-07T10:55:16;99678.50;;;13.73;49.83
9893;BME280;4985;49.092;8.542;2023-12-07T10:57:44;99662.81;;;13.72;49.92
9893;BME280;4985;49.092;8.542;2023-12-07T11:00:10;99659.19;;;13.73;49.95
9893;BME280;4985;49.092;8.542;2023-12-07T11:02:37;99661.00;;;13.72;49.72
9893;BME280;4985;49.092;8.542;2023-12-07T11:05:03;99657.34;;;13.73;49.75
9893;BME280;4985;49.092;8.542;2023-12-07T11:07:41;99651.22;;;13.73;49.96
9893;BME280;4985;49.092;8.542;2023-12-07T11:10:20;99642.47;;;13.72;49.89
9893;BME280;4985;49.092;8.542;2023-12-07T11:15:36;99633.88;;;13.70;49.87
9893;BME280;4985;49.092;8.542;2023-12-07T11:18:02;99631.22;;;13.70;49.80
9893;BME280;4985;49.092;8.542;2023-12-07T11:20:44;99623.97;;;13.72;49.74
9893;BME280;4985;49.092;8.542;2023-12-07T11:23:11;99621.31;;;13.72;50.11
9893;BME280;4985;49.092;8.542;2023-12-07T11:25:37;99612.69;;;13.70;49.82
9893;BME280;4985;49.092;8.542;2023-12-07T11:28:04;99610.72;;;13.72;49.92
9893;BME280;4985;49.092;8.542;2023-12-07T11:30:35;99600.97;;;13.73;50.12
9893;BME280;4985;49.092;8.542;2023-12-07T11:33:03;99597.31;;;13.74;49.92
9893;BME280;4985;49.092;8.542;2023-12-07T11:35:29;99592.22;;;13.72;49.75
9893;BME280;4985;49.092;8.542;2023-12-07T11:40:40;99577.16;;;13.73;49.84
9893;BME280;4985;49.092;8.542;2023-12-07T11:43:06;99585.09;;;13.73;49.90
9893;BME280;4985;49.092;8.542;2023-12-07T11:45:48;99580.63;;;13.73;49.73
9893;BME280;4985;49.092;8.542;2023-12-07T11:48:15;99583.28;;;13.73;49.94
9893;BME280;4985;49.092;8.542;2023-12-07T11:53:30;99574.50;;;13.73;50.07
9893;BME280;4985;49.092;8.542;2023-12-07T11:56:00;99565.56;;;13.74;50.08
9893;BME280;4985;49.092;8.542;2023-12-07T11:58:26;99549.69;;;13.74;50.20
9893;BME280;4985;49.092;8.542;2023-12-07T12:00:53;99553.16;;;13.74;49.80
9893;BME280;4985;49.092;8.542;2023-12-07T12:03:19;99544.41;;;13.74;50.15
9893;BME280;4985;49.092;8.542;2023-12-07T12:05:45;99549.69;;;13.74;50.05
9893;BME280;4985;49.092;8.542;2023-12-07T12:08:10;99546.03;;;13.75;49.93
9893;BME280;4985;49.092;8.542;2023-12-07T12:10:37;99553.16;;;13.74;50.18
9893;BME280;4985;49.092;8.542;2023-12-07T12:13:03;99534.63;;;13.74;49.98
9893;BME280;4985;49.092;8.542;2023-12-07T12:15:29;99535.47;;;13.75;50.12
9893;BME280;4985;49.092;8.542;2023-12-07T12:17:58;99529.16;;;13.76;50.22
9893;BME280;4985;49.092;8.542;2023-12-07T12:20:24;99530.81;;;13.77;50.19
9893;BME280;4985;49.092;8.542;2023-12-07T12:22:50;99523.69;;;13.77;50.01
9893;BME280;4985;49.092;8.542;2023-12-07T12:25:26;99522.06;;;13.76;49.80
9893;BME280;4985;49.092;8.542;2023-12-07T12:27:54;99512.28;;;13.77;49.79
9893;BME280;4985;49.092;8.542;2023-12-07T12:30:21;99506.19;;;13.76;49.93
9893;BME280;4985;49.092;8.542;2023-12-07T12:32:48;99503.53;;;13.76;50.02
9893;BME280;4985;49.092;8.542;2023-12-07T12:35:13;99505.19;;;13.77;49.88
9893;BME280;4985;49.092;8.542;2023-12-07T12:37:42;99503.34;;;13.78;49.85
9893;BME280;4985;49.092;8.542;2023-12-07T12:40:10;99503.16;;;13.79;49.91
9893;BME280;4985;49.092;8.542;2023-12-07T12:42:35;99488.28;;;13.78;49.94
9893;BME280;4985;49.092;8.542;2023-12-07T12:45:05;99489.94;;;13.79;49.89
9893;BME280;4985;49.092;8.542;2023-12-07T12:47:30;99486.28;;;13.80;50.03
9893;BME280;4985;49.092;8.542;2023-12-07T12:49:56;99486.28;;;13.80;49.85
9893;BME280;4985;49.092;8.542;2023-12-07T12:52:23;99492.41;;;13.81;49.88
9893;BME280;4985;49.092;8.542;2023-12-07T12:54:50;99482.81;;;13.80;49.92
9893;BME280;4985;49.092;8.542;2023-12-07T12:57:17;99488.78;;;13.82;50.14
9893;BME280;4985;49.092;8.542;2023-12-07T12:59:42;99476.53;;;13.81;49.81
9893;BME280;4985;49.092;8.542;2023-12-07T13:02:10;99474.56;;;13.83;49.75
9893;BME280;4985;49.092;8.542;2023-12-07T13:04:35;99477.19;;;13.83;49.67
9893;BME280;4985;49.092;8.542;2023-12-07T13:07:01;99474.56;;;13.83;49.89
9893;BME280;4985;49.092;8.542;2023-12-07T13:09:26;99473.72;;;13.82;49.91
9893;BME280;4985;49.092;8.542;2023-12-07T13:11:51;99475.38;;;13.83;49.82
9893;BME280;4985;49.092;8.542;2023-12-07T13:14:17;99471.91;;;13.83;49.76
9893;BME280;4985;49.092;8.542;2023-12-07T13:16:42;99470.06;;;13.83;49.68
9893;BME280;4985;49.092;8.542;2023-12-07T13:19:08;99472.06;;;13.81;50.02
9893;BME280;4985;49.092;8.542;2023-12-07T13:21:33;99475.38;;;13.83;49.75
9893;BME280;4985;49.092;8.542;2023-12-07T13:23:58;99473.72;;;13.82;49.71
9893;BME280;4985;49.092;8.542;2023-12-07T13:26:24;99487.59;;;13.84;49.99